createdAt,value
2022-08-05T00:01:36.195Z,57.24
2022-08-05T00:04:17.673Z,57.46
2022-08-05T00:06:47.010Z,57.79
2022-08-05T00:09:19.718Z,57.75
2022-08-05T00:11:55.733Z,58.08
2022-08-05T00:14:27.830Z,58.35
2022-08-05T00:16:58.558Z,58.74
2022-08-05T00:19:33.616Z,58.78
2022-08-05T00:22:12.725Z,59.22
2022-08-05T00:24:42.344Z,59.83
2022-08-05T00:27:16.570Z,59.72
2022-08-05T00:30:03.271Z,59.87
2022-08-05T00:32:32.194Z,60.01
2022-08-05T00:35:07.642Z,60.04
2022-08-05T00:37:53.587Z,59.86
2022-08-05T00:40:27.782Z,60.49
2022-08-05T00:42:58.749Z,60.25
2022-08-05T00:45:42.921Z,60.40
2022-08-05T00:48:13.603Z,60.22
2022-08-05T00:50:44.396Z,59.62
2022-08-05T00:54:00.440Z,59.45
2022-08-05T00:56:05.571Z,59.93
2022-08-05T00:58:36.865Z,60.23
2022-08-05T01:01:08.950Z,60.35
2022-08-05T01:03:38.178Z,60.15
2022-08-05T01:06:14.123Z,60.05
2022-08-05T01:08:47.468Z,60.00
2022-08-05T01:11:22.283Z,59.66
2022-08-05T01:14:08.627Z,59.61
2022-08-05T01:16:46.359Z,59.39
2022-08-05T01:19:46.390Z,58.75
2022-08-05T01:22:41.927Z,58.74
2022-08-05T01:25:40.387Z,58.43
2022-08-05T01:28:19.179Z,57.89
2022-08-05T01:30:53.768Z,57.74
2022-08-05T01:33:35.622Z,57.71
2022-08-05T01:36:13.191Z,57.37
2022-08-05T01:38:48.544Z,57.21
2022-08-05T01:41:22.673Z,57.17
2022-08-05T01:43:56.663Z,56.76
2022-08-05T01:46:42.963Z,56.63
2022-08-05T01:49:24.253Z,56.37
2022-08-05T01:52:12.416Z,56.67
2022-08-05T01:54:52.055Z,56.42
2022-08-05T01:58:09.771Z,56.47
2022-08-05T02:00:17.486Z,56.53
2022-08-05T02:02:54.757Z,56.81
2022-08-05T02:05:28.576Z,56.80
2022-08-05T02:08:01.077Z,56.99
2022-08-05T02:10:37.953Z,56.69
2022-08-05T02:13:16.011Z,56.66
2022-08-05T02:15:51.858Z,56.59
2022-08-05T02:18:31.992Z,56.23
2022-08-05T02:21:14.633Z,56.23
2022-08-05T02:23:46.100Z,55.87
2022-08-05T02:26:17.308Z,55.71
2022-08-05T02:28:48.939Z,55.83
2022-08-05T02:31:24.553Z,55.84
2022-08-05T02:33:58.227Z,55.79
2022-08-05T02:36:31.379Z,56.18
2022-08-05T02:39:02.985Z,55.79
2022-08-05T02:41:43.275Z,55.92
2022-08-05T02:44:23.047Z,55.52
2022-08-05T02:47:00.489Z,55.66
2022-08-05T02:49:36.784Z,55.76
2022-08-05T02:52:09.290Z,55.50
2022-08-05T02:54:41.142Z,55.34
2022-08-05T02:58:10.279Z,55.71
2022-08-05T03:00:03.687Z,55.29
2022-08-05T03:02:38.001Z,55.16
2022-08-05T03:05:09.755Z,55.48
2022-08-05T03:08:07.185Z,55.42
2022-08-05T03:10:29.253Z,55.46
2022-08-05T03:15:25.188Z,55.32
2022-08-05T03:17:57.872Z,55.23
2022-08-05T03:20:27.920Z,55.31
2022-08-05T03:22:58.070Z,55.29
2022-08-05T03:26:02.576Z,55.05
2022-08-05T03:28:18.723Z,54.92
2022-08-05T03:30:49.722Z,55.06
2022-08-05T03:33:21.798Z,54.90
2022-08-05T03:35:51.803Z,55.04
2022-08-05T03:38:32.935Z,54.88
2022-08-05T03:41:04.018Z,54.88
2022-08-05T03:44:08.533Z,55.19
2022-08-05T03:46:29.538Z,55.30
2022-08-05T03:49:01.852Z,54.91
2022-08-05T03:52:48.657Z,54.84
2022-08-05T03:55:51.094Z,54.95
2022-08-05T03:57:42.420Z,54.92
2022-08-05T04:00:15.648Z,55.04
2022-08-05T04:02:57.956Z,55.01
2022-08-05T04:05:34.707Z,55.13
2022-08-05T04:08:14.349Z,55.37
2022-08-05T04:10:54.574Z,55.83
2022-08-05T04:13:23.366Z,56.25
2022-08-05T04:16:03.233Z,56.65
2022-08-05T04:18:34.407Z,56.77
2022-08-05T04:21:07.160Z,56.51
2022-08-05T04:24:04.817Z,56.59
2022-08-05T04:26:32.611Z,56.38
2022-08-05T04:29:01.272Z,56.21
2022-08-05T04:31:38.436Z,56.48
2022-08-05T04:34:31.917Z,55.94
2022-08-05T04:36:57.817Z,55.99
2022-08-05T04:39:27.454Z,55.93
2022-08-05T04:41:56.525Z,55.96
2022-08-05T04:44:29.243Z,56.00
2022-08-05T04:46:59.372Z,55.82
2022-08-05T04:49:38.619Z,55.96
2022-08-05T04:52:18.629Z,56.00
2022-08-05T04:54:47.280Z,56.36
2022-08-05T04:57:17.934Z,56.19
2022-08-05T04:59:48.065Z,56.34
2022-08-05T05:02:36.463Z,56.43
2022-08-05T05:05:16.563Z,56.55
2022-08-05T05:08:01.840Z,56.37
2022-08-05T05:10:33.195Z,56.41
2022-08-05T05:13:03.934Z,56.41
2022-08-05T05:16:00.449Z,56.61
2022-08-05T05:18:31.031Z,56.54
2022-08-05T05:21:03.201Z,56.55
2022-08-05T05:23:39.416Z,56.83
2022-08-05T05:26:28.016Z,56.71
2022-08-05T05:28:57.406Z,56.76
2022-08-05T05:31:25.880Z,56.67
2022-08-05T05:34:02.581Z,57.08
2022-08-05T05:36:32.265Z,57.22
2022-08-05T05:39:05.444Z,57.95
2022-08-05T05:41:40.681Z,58.23
2022-08-05T05:44:35.761Z,58.59
2022-08-05T05:47:04.383Z,59.03
2022-08-05T05:49:33.569Z,58.99
2022-08-05T05:52:06.001Z,58.72
2022-08-05T05:54:50.473Z,58.32
2022-08-05T05:57:20.658Z,58.19
2022-08-05T05:59:49.303Z,57.53
2022-08-05T06:02:36.927Z,57.36
2022-08-05T06:05:15.719Z,57.23
2022-08-05T06:07:58.003Z,57.04
2022-08-05T06:10:36.488Z,56.84
2022-08-05T06:13:06.274Z,56.73
2022-08-05T06:16:28.885Z,56.79
2022-08-05T06:18:31.687Z,56.59
2022-08-05T06:21:01.173Z,56.33
2022-08-05T06:23:32.100Z,56.41
2022-08-05T06:26:21.470Z,56.19
2022-08-05T06:28:52.656Z,56.11
2022-08-05T06:31:22.351Z,56.09
2022-08-05T06:34:07.406Z,56.41
2022-08-05T06:36:57.318Z,56.41
2022-08-05T06:39:27.695Z,56.47
2022-08-05T06:42:01.736Z,56.35
2022-08-05T06:44:33.001Z,56.41
2022-08-05T06:47:02.393Z,56.39
2022-08-05T06:50:01.252Z,56.36
2022-08-05T06:52:36.368Z,56.36
2022-08-05T06:55:07.541Z,56.18
2022-08-05T06:57:57.521Z,55.96
2022-08-05T07:00:26.324Z,55.71
2022-08-05T07:02:58.443Z,55.62
2022-08-05T07:05:37.387Z,55.55
2022-08-05T07:08:10.915Z,55.44
2022-08-05T07:10:52.909Z,54.95
2022-08-05T07:13:59.454Z,54.57
2022-08-05T07:18:00.824Z,54.34
2022-08-05T07:22:28.481Z,54.26
2022-08-05T07:24:59.870Z,53.97
2022-08-05T07:27:57.275Z,53.86
2022-08-05T07:30:34.479Z,53.76
2022-08-05T07:33:09.066Z,53.31
2022-08-05T07:36:02.709Z,53.15
2022-08-05T07:38:33.910Z,53.09
2022-08-05T07:42:06.738Z,53.06
2022-08-05T07:43:56.559Z,52.86
2022-08-05T07:46:28.388Z,52.44
2022-08-05T07:49:01.835Z,51.99
2022-08-05T07:51:40.305Z,52.48
2022-08-05T07:54:11.400Z,52.50
2022-08-05T07:57:02.295Z,52.19
2022-08-05T07:59:39.076Z,51.73
2022-08-05T08:02:16.028Z,51.61
2022-08-05T08:04:49.973Z,51.52
2022-08-05T08:07:22.270Z,50.53
2022-08-05T08:09:55.170Z,50.21
2022-08-05T08:12:35.082Z,49.87
2022-08-05T08:15:15.424Z,49.96
2022-08-05T08:17:52.682Z,49.39
2022-08-05T08:20:45.111Z,49.24
2022-08-05T08:24:00.309Z,49.45
2022-08-05T08:26:04.515Z,49.52
2022-08-05T08:28:36.066Z,49.32
2022-08-05T08:31:07.035Z,49.48
2022-08-05T08:33:38.118Z,49.42
2022-08-05T08:36:38.176Z,48.91
2022-08-05T08:38:57.258Z,48.49
2022-08-05T08:41:52.639Z,47.85
2022-08-05T08:45:18.391Z,47.31
2022-08-05T08:47:46.970Z,46.50
2022-08-05T08:50:31.154Z,46.22
2022-08-05T08:52:55.854Z,45.68
2022-08-05T08:55:31.893Z,45.48
2022-08-05T08:58:16.139Z,45.79
2022-08-05T09:00:45.295Z,45.95
2022-08-05T09:03:16.116Z,46.03
2022-08-05T09:06:07.928Z,45.47
2022-08-05T09:08:40.444Z,44.50
2022-08-05T09:11:12.099Z,44.21
2022-08-05T09:14:00.623Z,44.14
2022-08-05T09:16:32.206Z,43.51
2022-08-05T09:19:00.855Z,43.69
2022-08-05T09:22:23.205Z,43.33
2022-08-05T09:24:25.443Z,43.09
2022-08-05T09:26:58.779Z,42.68
2022-08-05T09:29:47.768Z,42.47
2022-08-05T09:32:41.271Z,42.47
2022-08-05T09:35:26.482Z,42.17
2022-08-05T09:38:12.656Z,42.31
2022-08-05T09:40:53.886Z,41.75
2022-08-05T09:43:40.207Z,41.44
2022-08-05T09:46:28.401Z,40.91
2022-08-05T09:49:07.683Z,40.89
2022-08-05T09:51:50.060Z,41.18
2022-08-05T09:54:31.235Z,41.02
2022-08-05T09:57:01.174Z,40.98
2022-08-05T09:59:34.761Z,40.86
2022-08-05T10:02:06.511Z,40.99
2022-08-05T10:04:41.070Z,41.03
2022-08-05T10:07:19.609Z,41.09
2022-08-05T10:10:13.972Z,40.83
2022-08-05T10:12:49.333Z,40.57
2022-08-05T10:15:22.097Z,40.72
2022-08-05T10:18:08.704Z,40.94
2022-08-05T10:20:41.982Z,40.94
2022-08-05T10:23:22.183Z,40.88
2022-08-05T10:26:07.054Z,41.49
2022-08-05T10:28:36.487Z,41.17
2022-08-05T10:32:50.784Z,41.47
2022-08-05T10:33:54.688Z,41.44
2022-08-05T10:36:26.050Z,41.00
2022-08-05T10:39:10.025Z,41.12
2022-08-05T10:41:51.469Z,40.79
2022-08-05T10:44:21.890Z,40.57
2022-08-05T10:46:54.424Z,40.14
2022-08-05T10:49:26.915Z,39.91
2022-08-05T10:52:00.423Z,40.22
2022-08-05T10:54:56.363Z,39.84
2022-08-05T10:57:32.149Z,39.98
2022-08-05T11:00:18.223Z,39.50
2022-08-05T11:03:25.348Z,39.73
2022-08-05T11:06:17.799Z,39.67
2022-08-05T11:09:32.013Z,39.80
2022-08-05T11:12:50.391Z,39.54
2022-08-05T11:15:22.216Z,39.89
2022-08-05T11:18:00.322Z,39.57
2022-08-05T11:20:41.870Z,39.60
2022-08-05T11:24:05.161Z,39.43
2022-08-05T11:26:32.668Z,39.25
2022-08-05T11:29:13.811Z,39.21
2022-08-05T11:31:54.542Z,38.90
2022-08-05T11:34:39.392Z,38.70
2022-08-05T11:38:30.134Z,38.61
2022-08-05T11:40:02.846Z,39.00
2022-08-05T11:42:38.096Z,38.19
2022-08-05T11:45:23.238Z,38.02
2022-08-05T11:47:59.874Z,38.25
2022-08-05T11:50:29.621Z,38.00
2022-08-05T11:53:06.379Z,37.44
2022-08-05T11:55:38.431Z,37.48
2022-08-05T11:58:09.877Z,37.34
2022-08-05T12:00:44.125Z,37.16
2022-08-05T12:03:23.771Z,37.04
2022-08-05T12:06:02.882Z,37.35
2022-08-05T12:08:32.756Z,37.21
2022-08-05T12:11:05.809Z,37.49
2022-08-05T12:13:49.342Z,37.45
2022-08-05T12:16:25.673Z,37.24
2022-08-05T12:18:56.778Z,37.67
2022-08-05T12:21:29.899Z,37.46
2022-08-05T12:24:05.121Z,37.72
2022-08-05T12:26:36.572Z,37.31
2022-08-05T12:29:09.627Z,37.22
2022-08-05T12:31:48.300Z,37.44
2022-08-05T12:34:23.483Z,36.50
2022-08-05T12:36:54.265Z,37.27
2022-08-05T12:39:28.181Z,36.58
2022-08-05T12:42:14.729Z,36.27
2022-08-05T12:44:44.538Z,36.21
2022-08-05T12:47:17.155Z,36.23
2022-08-05T12:50:02.143Z,35.54
2022-08-05T12:52:39.107Z,35.28
2022-08-05T12:55:23.905Z,35.76
2022-08-05T12:58:48.554Z,35.54
2022-08-05T13:02:02.134Z,35.81
2022-08-05T13:03:41.432Z,35.49
2022-08-05T13:06:16.790Z,35.32
2022-08-05T13:08:51.416Z,35.82
2022-08-05T13:11:47.045Z,35.70
2022-08-05T13:14:19.345Z,36.44
2022-08-05T13:16:50.189Z,35.59
2022-08-05T13:19:22.578Z,35.29
2022-08-05T13:21:52.544Z,35.40
2022-08-05T13:24:27.742Z,35.37
2022-08-05T13:27:22.951Z,35.13
2022-08-05T13:30:33.955Z,34.84
2022-08-05T13:32:51.699Z,34.95
2022-08-05T13:35:43.297Z,35.18
2022-08-05T13:38:20.042Z,35.69
2022-08-05T13:40:58.765Z,35.36
2022-08-05T13:43:45.197Z,36.25
2022-08-05T13:46:30.637Z,36.15
2022-08-05T13:49:10.052Z,35.73
2022-08-05T13:51:46.642Z,35.54
2022-08-05T13:54:21.094Z,35.64
2022-08-05T13:56:54.016Z,36.23
2022-08-05T13:59:27.070Z,36.31
2022-08-05T14:01:59.469Z,36.79
2022-08-05T14:04:49.087Z,37.18
2022-08-05T14:07:56.414Z,37.70
2022-08-05T14:10:12.744Z,37.55
2022-08-05T14:12:42.647Z,38.00
2022-08-05T14:16:07.160Z,38.11
2022-08-05T14:18:01.926Z,38.68
2022-08-05T14:20:32.706Z,38.91
2022-08-05T14:23:02.955Z,38.96
2022-08-05T14:25:31.445Z,39.28
2022-08-05T14:28:00.189Z,39.33
2022-08-05T14:30:29.870Z,39.46
2022-08-05T14:32:58.880Z,39.38
2022-08-05T14:35:50.104Z,39.72
2022-08-05T14:38:31.662Z,39.97
2022-08-05T14:41:04.461Z,40.21
2022-08-05T14:43:57.798Z,40.52
2022-08-05T14:46:28.247Z,41.18
2022-08-05T14:49:06.963Z,41.87
2022-08-05T14:51:38.109Z,43.52
2022-08-05T14:54:27.724Z,43.89
2022-08-05T14:56:58.559Z,44.21
2022-08-05T14:59:29.161Z,45.44
2022-08-05T15:01:58.367Z,46.15
2022-08-05T15:04:29.469Z,46.66
2022-08-05T15:06:58.254Z,48.42
2022-08-05T15:09:52.561Z,49.34
2022-08-05T15:12:17.361Z,49.72
2022-08-05T15:14:50.039Z,50.40
2022-08-05T15:17:46.721Z,50.57
2022-08-05T15:20:18.436Z,51.03
2022-08-05T15:22:52.270Z,51.47
2022-08-05T15:25:41.353Z,51.47
2022-08-05T15:28:16.143Z,51.11
2022-08-05T15:30:46.488Z,50.73
2022-08-05T15:33:56.940Z,50.77
2022-08-05T15:36:16.752Z,50.70
2022-08-05T15:38:46.865Z,50.44
2022-08-05T15:41:23.160Z,50.23
2022-08-05T15:43:54.596Z,50.21
2022-08-05T15:46:24.870Z,50.57
2022-08-05T15:49:00.719Z,50.33
2022-08-05T15:52:03.983Z,49.93
2022-08-05T15:54:35.119Z,49.65
2022-08-05T15:57:08.025Z,49.73
2022-08-05T15:59:38.154Z,50.11
2022-08-05T16:02:07.177Z,50.88
2022-08-05T16:04:43.998Z,51.38
2022-08-05T16:07:13.347Z,52.02
2022-08-05T16:09:43.584Z,53.05
2022-08-05T16:12:13.698Z,52.58
2022-08-05T16:14:44.022Z,52.78
2022-08-05T16:17:14.095Z,53.18
2022-08-05T16:20:04.421Z,53.48
2022-08-05T16:22:34.126Z,53.59
2022-08-05T16:25:05.356Z,53.28
2022-08-05T16:27:59.704Z,53.25
2022-08-05T16:30:30.758Z,52.90
2022-08-05T16:33:01.933Z,51.68
2022-08-05T16:35:33.628Z,51.39
2022-08-05T16:38:24.556Z,51.10
2022-08-05T16:41:00.872Z,51.31
2022-08-05T16:43:32.665Z,51.92
2022-08-05T16:46:04.677Z,51.62
2022-08-05T16:48:37.833Z,51.87
2022-08-05T16:51:10.778Z,51.71
2022-08-05T16:54:04.898Z,51.54
2022-08-05T16:56:30.370Z,51.96
2022-08-05T16:59:07.699Z,51.83
2022-08-05T17:01:54.274Z,52.12
2022-08-05T17:04:27.481Z,52.27
2022-08-05T17:07:00.859Z,52.09
2022-08-05T17:09:38.986Z,52.25
2022-08-05T17:12:22.691Z,52.17
2022-08-05T17:15:10.491Z,52.26
2022-08-05T17:17:54.719Z,52.00
2022-08-05T17:20:25.118Z,52.10
2022-08-05T17:22:55.856Z,52.33
2022-08-05T17:25:39.722Z,52.47
2022-08-05T17:28:09.977Z,52.80
2022-08-05T17:30:42.758Z,53.10
2022-08-05T17:33:20.544Z,53.27
2022-08-05T17:36:08.454Z,53.26
2022-08-05T17:38:39.951Z,53.54
2022-08-05T17:41:11.616Z,53.47
2022-08-05T17:43:57.916Z,53.73
2022-08-05T17:46:27.839Z,53.69
2022-08-05T17:48:56.375Z,53.98
2022-08-05T17:51:26.514Z,54.16
2022-08-05T17:53:55.259Z,54.44
2022-08-05T17:56:23.743Z,54.74
2022-08-05T17:58:57.047Z,54.67
2022-08-05T18:01:27.238Z,54.80
2022-08-05T18:03:59.097Z,54.60
2022-08-05T18:06:32.794Z,54.93
2022-08-05T18:09:03.562Z,54.80
2022-08-05T18:11:33.871Z,54.93
2022-08-05T18:14:04.500Z,54.98
2022-08-05T18:16:51.116Z,54.90
2022-08-05T18:19:22.994Z,54.96
2022-08-05T18:22:09.645Z,54.99
2022-08-05T18:24:40.117Z,55.13
2022-08-05T18:27:12.958Z,55.35
2022-08-05T18:29:53.703Z,55.36
2022-08-05T18:32:27.854Z,55.62
2022-08-05T18:34:57.381Z,55.73
2022-08-05T18:37:34.853Z,56.22
2022-08-05T18:40:34.135Z,56.32
2022-08-05T18:42:59.519Z,56.52
2022-08-05T18:45:41.837Z,56.55
2022-08-05T18:48:30.628Z,56.74
2022-08-05T18:52:04.882Z,56.71
2022-08-05T18:54:08.822Z,56.63
2022-08-05T18:56:38.098Z,56.66
2022-08-05T18:59:42.029Z,56.64
2022-08-05T19:01:58.256Z,56.59
2022-08-05T19:04:30.171Z,56.86
2022-08-05T19:06:58.687Z,56.45
2022-08-05T19:09:27.189Z,56.76
2022-08-05T19:11:59.941Z,56.81
2022-08-05T19:14:53.418Z,57.02
2022-08-05T19:17:19.365Z,56.66
2022-08-05T19:19:49.269Z,56.70
2022-08-05T19:22:18.461Z,56.56
2022-08-05T19:24:54.400Z,56.37
2022-08-05T19:27:30.201Z,56.27
2022-08-05T19:29:59.174Z,56.18
2022-08-05T19:32:28.275Z,56.43
2022-08-05T19:34:58.418Z,56.30
2022-08-05T19:37:30.008Z,56.07
2022-08-05T19:40:15.901Z,56.12
2022-08-05T19:43:04.566Z,56.12
2022-08-05T19:45:36.808Z,56.35
2022-08-05T19:48:07.131Z,56.22
2022-08-05T19:50:44.739Z,56.37
2022-08-05T19:53:13.264Z,56.17
2022-08-05T19:56:14.066Z,56.17
2022-08-05T19:58:31.945Z,55.86
2022-08-05T20:01:28.071Z,55.85
2022-08-05T20:03:57.532Z,56.03
2022-08-05T20:06:28.649Z,56.03
2022-08-05T20:09:00.882Z,56.20
2022-08-05T20:11:42.294Z,56.26
2022-08-05T20:14:26.814Z,56.09
2022-08-05T20:16:55.878Z,56.51
2022-08-05T20:19:25.097Z,56.82
2022-08-05T20:22:05.961Z,56.79
2022-08-05T20:24:38.152Z,57.02
2022-08-05T20:27:11.094Z,57.23
2022-08-05T20:29:40.230Z,57.09
2022-08-05T20:32:08.910Z,57.13
2022-08-05T20:34:38.858Z,56.98
2022-08-05T20:37:18.091Z,56.78
2022-08-05T20:39:59.982Z,56.91
2022-08-05T20:42:28.503Z,57.03
2022-08-05T20:44:57.079Z,56.84
2022-08-05T20:47:31.103Z,56.94
2022-08-05T20:50:02.126Z,56.96
2022-08-05T20:52:32.708Z,57.00
2022-08-05T20:55:54.771Z,56.74
2022-08-05T20:57:50.719Z,56.92
2022-08-05T21:00:44.163Z,57.17
2022-08-05T21:03:08.404Z,57.09
2022-08-05T21:05:54.109Z,57.21
2022-08-05T21:08:26.568Z,57.29
2022-08-05T21:11:09.071Z,56.95
2022-08-05T21:13:48.008Z,57.14
2022-08-05T21:16:29.749Z,56.78
2022-08-05T21:19:00.700Z,56.87
2022-08-05T21:21:43.768Z,56.96
2022-08-05T21:24:15.715Z,56.87
2022-08-05T21:26:53.163Z,57.17
2022-08-05T21:29:26.216Z,56.91
2022-08-05T21:31:55.407Z,57.05
2022-08-05T21:34:24.212Z,57.10
2022-08-05T21:36:53.106Z,57.06
2022-08-05T21:39:26.541Z,57.18
2022-08-05T21:42:01.412Z,57.29
2022-08-05T21:44:30.996Z,57.90
2022-08-05T21:47:00.272Z,58.62
2022-08-05T21:49:56.861Z,59.80
2022-08-05T21:52:27.695Z,60.63
2022-08-05T21:55:06.947Z,61.36
2022-08-05T21:57:36.365Z,61.78
2022-08-05T22:00:13.608Z,62.02
2022-08-05T22:02:43.512Z,62.53
2022-08-05T22:05:13.055Z,63.28
2022-08-05T22:07:59.104Z,64.35
2022-08-05T22:10:32.003Z,64.78
2022-08-05T22:13:58.822Z,65.28
2022-08-05T22:16:01.946Z,66.08
2022-08-05T22:18:36.505Z,66.19
2022-08-05T22:21:18.983Z,66.34
2022-08-05T22:24:09.023Z,66.30
2022-08-05T22:27:00.895Z,65.95
2022-08-05T22:29:35.586Z,66.10
2022-08-05T22:32:04.472Z,66.88
2022-08-05T22:34:38.674Z,67.41
2022-08-05T22:37:09.012Z,67.72
2022-08-05T22:39:39.262Z,67.78
2022-08-05T22:42:15.443Z,67.77
2022-08-05T22:44:56.666Z,67.71
2022-08-05T22:47:29.796Z,68.01
2022-08-05T22:50:22.845Z,68.24
2022-08-05T22:52:49.661Z,68.57
2022-08-05T22:55:21.440Z,68.80
2022-08-05T22:57:52.290Z,68.84
2022-08-05T23:00:22.269Z,68.45
2022-08-05T23:02:52.093Z,68.45
2022-08-05T23:05:22.539Z,68.55
2022-08-05T23:07:51.638Z,68.75
2022-08-05T23:10:23.673Z,68.65
2022-08-05T23:12:55.904Z,68.71
2022-08-05T23:15:27.086Z,68.69
2022-08-05T23:18:02.073Z,68.70
2022-08-05T23:20:33.223Z,68.45
2022-08-05T23:23:08.499Z,68.13
2022-08-05T23:25:51.551Z,67.70
2022-08-05T23:28:26.883Z,67.68
2022-08-05T23:31:02.305Z,67.33
2022-08-05T23:34:03.908Z,67.09
2022-08-05T23:36:38.491Z,66.75
2022-08-05T23:39:09.243Z,66.62
2022-08-05T23:41:40.919Z,66.36
2022-08-05T23:44:11.198Z,66.07
2022-08-05T23:46:39.610Z,65.65
2022-08-05T23:49:16.894Z,65.12
2022-08-05T23:52:03.355Z,65.29
2022-08-05T23:54:38.478Z,65.42
2022-08-05T23:57:08.209Z,64.95
